sensor_id;sensor_type;location;lat;lon;timestamp;P1;durP1;ratioP1;P2;durP2;ratioP2
24644;SDS011;12780;45.502;9.146;2023-07-31T00:00:03;17.27;;;10.73;;
24644;SDS011;12780;45.502;9.146;2023-07-31T00:02:29;15.68;;;10.88;;
24644;SDS011;12780;45.502;9.146;2023-07-31T00:04:55;18.88;;;12.27;;
24644;SDS011;12780;45.502;9.146;2023-07-31T00:07:21;18.38;;;12.30;;
24644;SDS011;12780;45.502;9.146;2023-07-31T00:09:47;19.38;;;13.35;;
24644;SDS011;12780;45.502;9.146;2023-07-31T00:12:13;19.75;;;12.27;;
24644;SDS011;12780;45.502;9.146;2023-07-31T00:14:39;23.30;;;12.55;;
24644;SDS011;12780;45.502;9.146;2023-07-31T00:17:05;17.70;;;13.30;;
24644;SDS011;12780;45.502;9.146;2023-07-31T00:19:31;21.40;;;13.40;;
24644;SDS011;12780;45.502;9.146;2023-07-31T00:21:57;20.95;;;15.60;;
24644;SDS011;12780;45.502;9.146;2023-07-31T00:24:23;24.33;;;16.15;;
24644;SDS011;12780;45.502;9.146;2023-07-31T00:26:49;23.65;;;16.15;;
24644;SDS011;12780;45.502;9.146;2023-07-31T00:29:15;24.08;;;16.63;;
24644;SDS011;12780;45.502;9.146;2023-07-31T00:31:41;20.33;;;15.30;;
24644;SDS011;12780;45.502;9.146;2023-07-31T00:34:07;19.85;;;14.60;;
24644;SDS011;12780;45.502;9.146;2023-07-31T00:36:33;19.10;;;13.68;;
24644;SDS011;12780;45.502;9.146;2023-07-31T00:38:59;19.92;;;14.60;;
24644;SDS011;12780;45.502;9.146;2023-07-31T00:41:25;19.65;;;14.80;;
24644;SDS011;12780;45.502;9.146;2023-07-31T00:43:51;17.75;;;14.90;;
24644;SDS011;12780;45.502;9.146;2023-07-31T00:46:17;21.05;;;15.18;;
24644;SDS011;12780;45.502;9.146;2023-07-31T00:48:43;22.50;;;16.20;;
24644;SDS011;12780;45.502;9.146;2023-07-31T00:51:10;22.60;;;16.02;;
24644;SDS011;12780;45.502;9.146;2023-07-31T00:53:36;21.15;;;14.23;;
24644;SDS011;12780;45.502;9.146;2023-07-31T00:56:03;20.50;;;15.30;;
24644;SDS011;12780;45.502;9.146;2023-07-31T00:58:29;18.75;;;13.65;;
24644;SDS011;12780;45.502;9.146;2023-07-31T01:00:55;23.63;;;14.32;;
24644;SDS011;12780;45.502;9.146;2023-07-31T01:03:21;18.50;;;14.60;;
24644;SDS011;12780;45.502;9.146;2023-07-31T01:05:55;21.10;;;14.75;;
24644;SDS011;12780;45.502;9.146;2023-07-31T01:08:24;23.00;;;16.25;;
24644;SDS011;12780;45.502;9.146;2023-07-31T01:10:55;19.23;;;14.20;;
24644;SDS011;12780;45.502;9.146;2023-07-31T01:13:21;18.77;;;14.20;;
24644;SDS011;12780;45.502;9.146;2023-07-31T01:15:48;23.40;;;14.07;;
24644;SDS011;12780;45.502;9.146;2023-07-31T01:18:14;17.20;;;13.02;;
24644;SDS011;12780;45.502;9.146;2023-07-31T01:20:41;15.30;;;11.60;;
24644;SDS011;12780;45.502;9.146;2023-07-31T01:25:44;14.30;;;10.45;;
24644;SDS011;12780;45.502;9.146;2023-07-31T01:28:13;17.20;;;9.68;;
24644;SDS011;12780;45.502;9.146;2023-07-31T01:30:41;16.45;;;10.63;;
24644;SDS011;12780;45.502;9.146;2023-07-31T01:33:08;17.67;;;9.73;;
24644;SDS011;12780;45.502;9.146;2023-07-31T01:35:35;17.15;;;9.88;;
24644;SDS011;12780;45.502;9.146;2023-07-31T01:38:02;16.05;;;10.02;;
24644;SDS011;12780;45.502;9.146;2023-07-31T01:40:28;14.60;;;9.38;;
24644;SDS011;12780;45.502;9.146;2023-07-31T01:42:54;12.55;;;9.23;;
24644;SDS011;12780;45.502;9.146;2023-07-31T01:45:20;12.55;;;8.95;;
24644;SDS011;12780;45.502;9.146;2023-07-31T01:47:46;17.10;;;8.65;;
24644;SDS011;12780;45.502;9.146;2023-07-31T01:50:12;14.15;;;9.27;;
24644;SDS011;12780;45.502;9.146;2023-07-31T01:52:38;15.23;;;8.50;;
24644;SDS011;12780;45.502;9.146;2023-07-31T01:55:04;13.23;;;8.30;;
24644;SDS011;12780;45.502;9.146;2023-07-31T01:57:30;14.95;;;8.63;;
24644;SDS011;12780;45.502;9.146;2023-07-31T01:59:56;12.07;;;8.32;;
24644;SDS011;12780;45.502;9.146;2023-07-31T02:02:22;13.00;;;7.72;;
24644;SDS011;12780;45.502;9.146;2023-07-31T02:04:48;14.40;;;8.52;;
24644;SDS011;12780;45.502;9.146;2023-07-31T02:07:14;11.23;;;8.13;;
24644;SDS011;12780;45.502;9.146;2023-07-31T02:09:40;12.82;;;7.47;;
24644;SDS011;12780;45.502;9.146;2023-07-31T02:12:07;11.00;;;7.47;;
24644;SDS011;12780;45.502;9.146;2023-07-31T02:14:36;12.82;;;7.53;;
24644;SDS011;12780;45.502;9.146;2023-07-31T02:17:02;11.55;;;7.10;;
24644;SDS011;12780;45.502;9.146;2023-07-31T02:19:27;13.48;;;6.60;;
24644;SDS011;12780;45.502;9.146;2023-07-31T02:21:53;11.23;;;6.82;;
24644;SDS011;12780;45.502;9.146;2023-07-31T02:24:19;9.73;;;6.10;;
24644;SDS011;12780;45.502;9.146;2023-07-31T02:26:45;11.02;;;6.70;;
24644;SDS011;12780;45.502;9.146;2023-07-31T02:29:11;10.77;;;6.18;;
24644;SDS011;12780;45.502;9.146;2023-07-31T02:31:37;11.05;;;5.78;;
24644;SDS011;12780;45.502;9.146;2023-07-31T02:34:04;6.82;;;5.55;;
24644;SDS011;12780;45.502;9.146;2023-07-31T02:36:30;9.98;;;6.00;;
24644;SDS011;12780;45.502;9.146;2023-07-31T02:38:56;10.77;;;5.55;;
24644;SDS011;12780;45.502;9.146;2023-07-31T02:41:21;7.07;;;5.10;;
24644;SDS011;12780;45.502;9.146;2023-07-31T02:43:47;7.63;;;5.10;;
24644;SDS011;12780;45.502;9.146;2023-07-31T02:46:13;9.40;;;5.15;;
24644;SDS011;12780;45.502;9.146;2023-07-31T02:48:39;8.10;;;4.97;;
24644;SDS011;12780;45.502;9.146;2023-07-31T02:51:05;7.60;;;5.10;;
24644;SDS011;12780;45.502;9.146;2023-07-31T02:53:31;6.13;;;5.15;;
24644;SDS011;12780;45.502;9.146;2023-07-31T02:55:57;6.80;;;5.13;;
24644;SDS011;12780;45.502;9.146;2023-07-31T02:58:23;7.30;;;4.80;;
24644;SDS011;12780;45.502;9.146;2023-07-31T03:00:49;11.55;;;5.00;;
24644;SDS011;12780;45.502;9.146;2023-07-31T03:03:15;6.13;;;5.30;;
24644;SDS011;12780;45.502;9.146;2023-07-31T03:05:41;6.93;;;4.82;;
24644;SDS011;12780;45.502;9.146;2023-07-31T03:08:07;12.02;;;5.30;;
24644;SDS011;12780;45.502;9.146;2023-07-31T03:10:33;12.00;;;5.15;;
24644;SDS011;12780;45.502;9.146;2023-07-31T03:12:59;9.18;;;4.70;;
24644;SDS011;12780;45.502;9.146;2023-07-31T03:15:25;7.50;;;4.75;;
24644;SDS011;12780;45.502;9.146;2023-07-31T03:17:51;9.60;;;4.95;;
24644;SDS011;12780;45.502;9.146;2023-07-31T03:20:17;7.60;;;4.90;;
24644;SDS011;12780;45.502;9.146;2023-07-31T03:22:43;6.22;;;4.70;;
24644;SDS011;12780;45.502;9.146;2023-07-31T03:25:09;11.30;;;4.82;;
24644;SDS011;12780;45.502;9.146;2023-07-31T03:27:35;7.22;;;4.88;;
24644;SDS011;12780;45.502;9.146;2023-07-31T03:30:02;8.07;;;4.80;;
24644;SDS011;12780;45.502;9.146;2023-07-31T03:32:28;8.82;;;4.68;;
24644;SDS011;12780;45.502;9.146;2023-07-31T03:34:54;13.43;;;4.78;;
24644;SDS011;12780;45.502;9.146;2023-07-31T03:37:20;8.15;;;4.95;;
24644;SDS011;12780;45.502;9.146;2023-07-31T03:39:46;10.10;;;5.15;;
24644;SDS011;12780;45.502;9.146;2023-07-31T03:42:12;9.52;;;5.00;;
24644;SDS011;12780;45.502;9.146;2023-07-31T03:44:38;9.05;;;5.00;;
24644;SDS011;12780;45.502;9.146;2023-07-31T03:47:04;7.88;;;4.72;;
24644;SDS011;12780;45.502;9.146;2023-07-31T03:49:30;8.73;;;5.30;;
24644;SDS011;12780;45.502;9.146;2023-07-31T03:51:56;7.03;;;4.47;;
24644;SDS011;12780;45.502;9.146;2023-07-31T03:54:22;7.50;;;4.95;;
24644;SDS011;12780;45.502;9.146;2023-07-31T03:56:49;7.15;;;5.15;;
24644;SDS011;12780;45.502;9.146;2023-07-31T03:59:15;11.25;;;4.70;;
24644;SDS011;12780;45.502;9.146;2023-07-31T04:01:41;7.50;;;5.03;;
24644;SDS011;12780;45.502;9.146;2023-07-31T04:04:07;7.38;;;4.57;;
24644;SDS011;12780;45.502;9.146;2023-07-31T04:06:33;8.98;;;4.95;;
24644;SDS011;12780;45.502;9.146;2023-07-31T04:08:59;7.65;;;4.85;;
24644;SDS011;12780;45.502;9.146;2023-07-31T04:11:25;8.55;;;5.22;;
24644;SDS011;12780;45.502;9.146;2023-07-31T04:13:50;7.20;;;4.40;;
24644;SDS011;12780;45.502;9.146;2023-07-31T04:16:16;8.23;;;4.53;;
24644;SDS011;12780;45.502;9.146;2023-07-31T04:18:42;14.02;;;7.50;;
24644;SDS011;12780;45.502;9.146;2023-07-31T04:21:08;6.45;;;4.88;;
24644;SDS011;12780;45.502;9.146;2023-07-31T04:23:35;9.43;;;5.07;;
24644;SDS011;12780;45.502;9.146;2023-07-31T04:26:01;7.22;;;4.72;;
24644;SDS011;12780;45.502;9.146;2023-07-31T04:28:27;9.88;;;5.97;;
24644;SDS011;12780;45.502;9.146;2023-07-31T04:30:53;7.47;;;4.88;;
24644;SDS011;12780;45.502;9.146;2023-07-31T04:33:19;6.82;;;4.90;;
24644;SDS011;12780;45.502;9.146;2023-07-31T04:35:52;6.88;;;4.95;;
24644;SDS011;12780;45.502;9.146;2023-07-31T04:40:44;10.02;;;4.88;;
24644;SDS011;12780;45.502;9.146;2023-07-31T04:43:10;8.40;;;4.60;;
24644;SDS011;12780;45.502;9.146;2023-07-31T04:45:36;8.98;;;4.78;;
24644;SDS011;12780;45.502;9.146;2023-07-31T04:48:02;8.18;;;4.78;;
24644;SDS011;12780;45.502;9.146;2023-07-31T04:50:28;9.00;;;4.75;;
24644;SDS011;12780;45.502;9.146;2023-07-31T04:52:55;8.55;;;4.70;;
24644;SDS011;12780;45.502;9.146;2023-07-31T04:55:21;9.52;;;5.18;;
24644;SDS011;12780;45.502;9.146;2023-07-31T04:57:47;10.60;;;5.20;;
24644;SDS011;12780;45.502;9.146;2023-07-31T05:00:13;11.50;;;4.78;;
24644;SDS011;12780;45.502;9.146;2023-07-31T05:02:39;9.02;;;5.32;;
24644;SDS011;12780;45.502;9.146;2023-07-31T05:05:05;10.18;;;5.25;;
24644;SDS011;12780;45.502;9.146;2023-07-31T05:07:31;10.73;;;5.28;;
24644;SDS011;12780;45.502;9.146;2023-07-31T05:09:57;8.60;;;5.38;;
24644;SDS011;12780;45.502;9.146;2023-07-31T05:12:23;7.43;;;4.82;;
24644;SDS011;12780;45.502;9.146;2023-07-31T05:14:49;11.35;;;5.30;;
24644;SDS011;12780;45.502;9.146;2023-07-31T05:17:15;8.90;;;5.20;;
24644;SDS011;12780;45.502;9.146;2023-07-31T05:19:41;8.73;;;5.20;;
24644;SDS011;12780;45.502;9.146;2023-07-31T05:22:07;7.43;;;4.47;;
24644;SDS011;12780;45.502;9.146;2023-07-31T05:24:33;7.93;;;4.75;;
24644;SDS011;12780;45.502;9.146;2023-07-31T05:26:59;13.35;;;4.97;;
24644;SDS011;12780;45.502;9.146;2023-07-31T05:29:25;8.82;;;5.50;;
24644;SDS011;12780;45.502;9.146;2023-07-31T05:31:51;10.07;;;5.43;;
24644;SDS011;12780;45.502;9.146;2023-07-31T05:34:17;11.23;;;5.20;;
24644;SDS011;12780;45.502;9.146;2023-07-31T05:36:43;8.02;;;5.03;;
24644;SDS011;12780;45.502;9.146;2023-07-31T05:39:09;8.73;;;4.97;;
24644;SDS011;12780;45.502;9.146;2023-07-31T05:41:35;10.10;;;5.70;;
24644;SDS011;12780;45.502;9.146;2023-07-31T05:44:01;7.00;;;5.38;;
24644;SDS011;12780;45.502;9.146;2023-07-31T05:46:27;7.75;;;5.07;;
24644;SDS011;12780;45.502;9.146;2023-07-31T05:48:54;8.85;;;4.97;;
24644;SDS011;12780;45.502;9.146;2023-07-31T05:51:20;9.77;;;5.15;;
24644;SDS011;12780;45.502;9.146;2023-07-31T05:53:45;7.97;;;5.18;;
24644;SDS011;12780;45.502;9.146;2023-07-31T05:56:11;11.40;;;5.40;;
24644;SDS011;12780;45.502;9.146;2023-07-31T05:58:37;7.97;;;5.05;;
24644;SDS011;12780;45.502;9.146;2023-07-31T06:01:03;9.68;;;4.93;;
24644;SDS011;12780;45.502;9.146;2023-07-31T06:03:29;7.43;;;5.00;;
24644;SDS011;12780;45.502;9.146;2023-07-31T06:05:56;7.28;;;5.15;;
24644;SDS011;12780;45.502;9.146;2023-07-31T06:08:22;6.57;;;5.10;;
24644;SDS011;12780;45.502;9.146;2023-07-31T06:10:48;12.57;;;5.32;;
24644;SDS011;12780;45.502;9.146;2023-07-31T06:13:14;7.78;;;5.10;;
24644;SDS011;12780;45.502;9.146;2023-07-31T06:15:40;8.95;;;5.18;;
24644;SDS011;12780;45.502;9.146;2023-07-31T06:18:06;9.73;;;4.93;;
24644;SDS011;12780;45.502;9.146;2023-07-31T06:20:33;12.88;;;5.68;;
24644;SDS011;12780;45.502;9.146;2023-07-31T06:22:59;7.43;;;5.18;;
24644;SDS011;12780;45.502;9.146;2023-07-31T06:25:25;9.57;;;4.70;;
24644;SDS011;12780;45.502;9.146;2023-07-31T06:27:51;11.73;;;5.90;;
24644;SDS011;12780;45.502;9.146;2023-07-31T06:30:17;10.63;;;5.00;;
24644;SDS011;12780;45.502;9.146;2023-07-31T06:32:43;7.47;;;4.80;;
24644;SDS011;12780;45.502;9.146;2023-07-31T06:35:09;7.05;;;4.10;;
24644;SDS011;12780;45.502;9.146;2023-07-31T06:37:35;8.25;;;4.40;;
24644;SDS011;12780;45.502;9.146;2023-07-31T06:40:02;10.52;;;4.30;;
24644;SDS011;12780;45.502;9.146;2023-07-31T06:42:30;6.35;;;4.30;;
24644;SDS011;12780;45.502;9.146;2023-07-31T06:44:56;8.75;;;4.22;;
24644;SDS011;12780;45.502;9.146;2023-07-31T06:47:22;7.93;;;4.25;;
24644;SDS011;12780;45.502;9.146;2023-07-31T06:49:48;10.20;;;3.67;;
24644;SDS011;12780;45.502;9.146;2023-07-31T06:52:14;7.38;;;4.00;;
24644;SDS011;12780;45.502;9.146;2023-07-31T06:54:40;6.82;;;3.22;;
24644;SDS011;12780;45.502;9.146;2023-07-31T06:57:06;7.35;;;3.58;;
24644;SDS011;12780;45.502;9.146;2023-07-31T06:59:34;5.50;;;3.88;;
24644;SDS011;12780;45.502;9.146;2023-07-31T07:02:00;7.65;;;3.47;;
24644;SDS011;12780;45.502;9.146;2023-07-31T07:04:26;11.10;;;2.95;;
24644;SDS011;12780;45.502;9.146;2023-07-31T07:06:52;5.22;;;3.15;;
24644;SDS011;12780;45.502;9.146;2023-07-31T07:09:18;4.88;;;3.00;;
24644;SDS011;12780;45.502;9.146;2023-07-31T07:11:44;10.15;;;3.67;;
24644;SDS011;12780;45.502;9.146;2023-07-31T07:14:10;5.95;;;3.60;;
24644;SDS011;12780;45.502;9.146;2023-07-31T07:16:36;4.75;;;3.08;;
24644;SDS011;12780;45.502;9.146;2023-07-31T07:19:02;7.13;;;3.25;;
24644;SDS011;12780;45.502;9.146;2023-07-31T07:21:28;6.43;;;2.83;;
24644;SDS011;12780;45.502;9.146;2023-07-31T07:23:54;5.65;;;2.83;;
24644;SDS011;12780;45.502;9.146;2023-07-31T07:26:20;3.63;;;2.40;;
24644;SDS011;12780;45.502;9.146;2023-07-31T07:28:46;4.40;;;2.55;;
24644;SDS011;12780;45.502;9.146;2023-07-31T07:31:12;4.47;;;2.70;;
24644;SDS011;12780;45.502;9.146;2023-07-31T07:33:38;5.15;;;3.05;;
24644;SDS011;12780;45.502;9.146;2023-07-31T07:36:04;3.65;;;2.75;;
24644;SDS011;12780;45.502;9.146;2023-07-31T07:38:34;6.15;;;2.70;;
24644;SDS011;12780;45.502;9.146;2023-07-31T07:41:00;7.72;;;3.15;;
24644;SDS011;12780;45.502;9.146;2023-07-31T07:43:26;4.97;;;2.70;;
24644;SDS011;12780;45.502;9.146;2023-07-31T07:45:52;3.55;;;2.20;;
24644;SDS011;12780;45.502;9.146;2023-07-31T07:48:18;3.30;;;2.20;;
24644;SDS011;12780;45.502;9.146;2023-07-31T07:50:44;4.30;;;2.22;;
24644;SDS011;12780;45.502;9.146;2023-07-31T07:53:10;3.97;;;2.13;;
24644;SDS011;12780;45.502;9.146;2023-07-31T07:55:36;3.08;;;2.20;;
24644;SDS011;12780;45.502;9.146;2023-07-31T07:58:03;7.63;;;2.60;;
24644;SDS011;12780;45.502;9.146;2023-07-31T08:00:29;3.22;;;2.00;;
24644;SDS011;12780;45.502;9.146;2023-07-31T08:02:55;3.60;;;2.10;;
24644;SDS011;12780;45.502;9.146;2023-07-31T08:05:23;3.22;;;2.00;;
24644;SDS011;12780;45.502;9.146;2023-07-31T08:07:49;3.95;;;2.70;;
24644;SDS011;12780;45.502;9.146;2023-07-31T08:10:15;6.20;;;2.40;;
24644;SDS011;12780;45.502;9.146;2023-07-31T08:12:41;3.10;;;2.17;;
24644;SDS011;12780;45.502;9.146;2023-07-31T08:15:07;4.28;;;2.38;;
24644;SDS011;12780;45.502;9.146;2023-07-31T08:17:33;5.60;;;2.50;;
24644;SDS011;12780;45.502;9.146;2023-07-31T08:19:59;3.78;;;2.15;;
24644;SDS011;12780;45.502;9.146;2023-07-31T08:22:25;5.13;;;2.03;;
24644;SDS011;12780;45.502;9.146;2023-07-31T08:24:51;5.50;;;2.58;;
24644;SDS011;12780;45.502;9.146;2023-07-31T08:27:17;4.10;;;2.45;;
24644;SDS011;12780;45.502;9.146;2023-07-31T08:29:43;3.28;;;2.20;;
24644;SDS011;12780;45.502;9.146;2023-07-31T08:32:09;5.22;;;2.40;;
24644;SDS011;12780;45.502;9.146;2023-07-31T08:34:36;7.15;;;2.85;;
24644;SDS011;12780;45.502;9.146;2023-07-31T08:37:01;5.10;;;2.60;;
24644;SDS011;12780;45.502;9.146;2023-07-31T08:39:28;5.90;;;2.20;;
24644;SDS011;12780;45.502;9.146;2023-07-31T08:41:57;3.28;;;2.25;;
24644;SDS011;12780;45.502;9.146;2023-07-31T08:44:24;5.35;;;2.55;;
24644;SDS011;12780;45.502;9.146;2023-07-31T08:46:50;3.65;;;2.65;;
24644;SDS011;12780;45.502;9.146;2023-07-31T08:49:17;3.83;;;2.38;;
24644;SDS011;12780;45.502;9.146;2023-07-31T08:51:46;7.25;;;2.92;;
24644;SDS011;12780;45.502;9.146;2023-07-31T08:54:12;4.07;;;2.70;;
24644;SDS011;12780;45.502;9.146;2023-07-31T08:56:38;4.40;;;2.80;;
24644;SDS011;12780;45.502;9.146;2023-07-31T08:59:05;5.00;;;2.85;;
24644;SDS011;12780;45.502;9.146;2023-07-31T09:01:31;5.03;;;2.30;;
24644;SDS011;12780;45.502;9.146;2023-07-31T09:04:01;4.32;;;2.55;;
24644;SDS011;12780;45.502;9.146;2023-07-31T09:06:28;4.68;;;2.50;;
24644;SDS011;12780;45.502;9.146;2023-07-31T09:08:55;7.00;;;2.75;;
24644;SDS011;12780;45.502;9.146;2023-07-31T09:11:21;4.97;;;2.95;;
24644;SDS011;12780;45.502;9.146;2023-07-31T09:13:49;5.32;;;2.65;;
24644;SDS011;12780;45.502;9.146;2023-07-31T09:16:15;6.40;;;2.95;;
24644;SDS011;12780;45.502;9.146;2023-07-31T09:18:52;6.25;;;2.88;;
24644;SDS011;12780;45.502;9.146;2023-07-31T09:21:19;5.43;;;2.80;;
24644;SDS011;12780;45.502;9.146;2023-07-31T09:23:46;4.45;;;3.00;;
24644;SDS011;12780;45.502;9.146;2023-07-31T09:26:32;5.88;;;3.33;;
24644;SDS011;12780;45.502;9.146;2023-07-31T09:28:59;11.00;;;4.55;;
24644;SDS011;12780;45.502;9.146;2023-07-31T09:31:38;6.28;;;3.35;;
24644;SDS011;12780;45.502;9.146;2023-07-31T09:34:05;8.23;;;3.47;;
24644;SDS011;12780;45.502;9.146;2023-07-31T09:36:31;10.13;;;3.33;;
24644;SDS011;12780;45.502;9.146;2023-07-31T09:39:03;8.10;;;3.60;;
24644;SDS011;12780;45.502;9.146;2023-07-31T09:41:30;4.20;;;2.97;;
24644;SDS011;12780;45.502;9.146;2023-07-31T09:43:56;8.45;;;3.80;;
24644;SDS011;12780;45.502;9.146;2023-07-31T09:46:22;4.25;;;2.78;;
24644;SDS011;12780;45.502;9.146;2023-07-31T09:48:52;5.40;;;2.90;;
24644;SDS011;12780;45.502;9.146;2023-07-31T09:51:25;5.55;;;2.80;;
24644;SDS011;12780;45.502;9.146;2023-07-31T09:53:52;5.53;;;3.72;;
24644;SDS011;12780;45.502;9.146;2023-07-31T09:56:18;8.68;;;3.95;;
24644;SDS011;12780;45.502;9.146;2023-07-31T09:58:47;11.70;;;3.63;;
24644;SDS011;12780;45.502;9.146;2023-07-31T10:01:13;4.75;;;3.33;;
24644;SDS011;12780;45.502;9.146;2023-07-31T10:03:39;5.03;;;4.20;;
24644;SDS011;12780;45.502;9.146;2023-07-31T10:06:06;8.13;;;3.60;;
24644;SDS011;12780;45.502;9.146;2023-07-31T10:08:33;5.47;;;3.25;;
24644;SDS011;12780;45.502;9.146;2023-07-31T10:11:01;5.20;;;3.13;;
24644;SDS011;12780;45.502;9.146;2023-07-31T10:13:28;5.20;;;3.45;;
24644;SDS011;12780;45.502;9.146;2023-07-31T10:15:54;4.68;;;3.25;;
24644;SDS011;12780;45.502;9.146;2023-07-31T10:18:24;5.63;;;3.97;;
24644;SDS011;12780;45.502;9.146;2023-07-31T10:20:50;5.43;;;4.28;;
24644;SDS011;12780;45.502;9.146;2023-07-31T10:23:17;6.82;;;4.65;;
24644;SDS011;12780;45.502;9.146;2023-07-31T10:25:43;5.90;;;4.57;;
24644;SDS011;12780;45.502;9.146;2023-07-31T10:28:09;5.38;;;3.78;;
24644;SDS011;12780;45.502;9.146;2023-07-31T10:30:35;4.70;;;3.88;;
24644;SDS011;12780;45.502;9.146;2023-07-31T10:33:03;6.45;;;4.70;;
24644;SDS011;12780;45.502;9.146;2023-07-31T10:35:29;8.93;;;5.80;;
24644;SDS011;12780;45.502;9.146;2023-07-31T10:37:55;8.75;;;4.70;;
24644;SDS011;12780;45.502;9.146;2023-07-31T10:40:25;8.45;;;5.60;;
24644;SDS011;12780;45.502;9.146;2023-07-31T10:42:52;9.77;;;5.28;;
24644;SDS011;12780;45.502;9.146;2023-07-31T10:45:26;8.77;;;5.28;;
24644;SDS011;12780;45.502;9.146;2023-07-31T10:48:01;5.72;;;4.40;;
24644;SDS011;12780;45.502;9.146;2023-07-31T10:50:28;14.43;;;6.20;;
24644;SDS011;12780;45.502;9.146;2023-07-31T10:52:55;13.32;;;6.68;;
24644;SDS011;12780;45.502;9.146;2023-07-31T10:55:31;9.80;;;6.68;;
24644;SDS011;12780;45.502;9.146;2023-07-31T10:58:07;9.43;;;7.30;;
24644;SDS011;12780;45.502;9.146;2023-07-31T11:00:33;10.18;;;6.38;;
24644;SDS011;12780;45.502;9.146;2023-07-31T11:03:18;10.07;;;7.15;;
24644;SDS011;12780;45.502;9.146;2023-07-31T11:16:08;7.28;;;5.50;;
24644;SDS011;12780;45.502;9.146;2023-07-31T11:18:34;8.52;;;4.88;;
24644;SDS011;12780;45.502;9.146;2023-07-31T11:21:00;7.70;;;5.75;;
24644;SDS011;12780;45.502;9.146;2023-07-31T11:23:26;8.75;;;5.95;;
24644;SDS011;12780;45.502;9.146;2023-07-31T11:25:52;10.98;;;6.05;;
24644;SDS011;12780;45.502;9.146;2023-07-31T11:28:19;7.28;;;5.13;;
24644;SDS011;12780;45.502;9.146;2023-07-31T11:30:45;11.30;;;5.25;;
24644;SDS011;12780;45.502;9.146;2023-07-31T11:33:12;9.88;;;5.93;;
24644;SDS011;12780;45.502;9.146;2023-07-31T11:35:43;7.82;;;5.90;;
24644;SDS011;12780;45.502;9.146;2023-07-31T11:38:10;9.60;;;5.15;;
24644;SDS011;12780;45.502;9.146;2023-07-31T11:40:42;9.45;;;5.60;;
24644;SDS011;12780;45.502;9.146;2023-07-31T11:43:09;7.10;;;5.18;;
24644;SDS011;12780;45.502;9.146;2023-07-31T11:45:36;10.05;;;4.88;;
24644;SDS011;12780;45.502;9.146;2023-07-31T11:48:02;8.27;;;5.13;;
24644;SDS011;12780;45.502;9.146;2023-07-31T11:50:28;7.93;;;4.15;;
24644;SDS011;12780;45.502;9.146;2023-07-31T11:52:59;8.65;;;4.97;;
24644;SDS011;12780;45.502;9.146;2023-07-31T11:55:26;9.60;;;4.60;;
24644;SDS011;12780;45.502;9.146;2023-07-31T11:57:52;9.57;;;5.63;;
24644;SDS011;12780;45.502;9.146;2023-07-31T12:00:19;6.13;;;4.13;;
24644;SDS011;12780;45.502;9.146;2023-07-31T12:02:46;9.10;;;5.22;;
24644;SDS011;12780;45.502;9.146;2023-07-31T12:05:12;6.65;;;4.63;;
24644;SDS011;12780;45.502;9.146;2023-07-31T12:07:45;10.68;;;5.00;;
24644;SDS011;12780;45.502;9.146;2023-07-31T12:10:22;7.50;;;4.30;;
24644;SDS011;12780;45.502;9.146;2023-07-31T12:12:55;6.50;;;4.28;;
24644;SDS011;12780;45.502;9.146;2023-07-31T12:15:22;8.75;;;4.75;;
24644;SDS011;12780;45.502;9.146;2023-07-31T12:17:48;9.00;;;4.60;;
24644;SDS011;12780;45.502;9.146;2023-07-31T12:20:14;10.68;;;5.57;;
24644;SDS011;12780;45.502;9.146;2023-07-31T12:22:41;7.68;;;4.93;;
24644;SDS011;12780;45.502;9.146;2023-07-31T12:25:07;7.90;;;5.43;;
24644;SDS011;12780;45.502;9.146;2023-07-31T12:27:44;8.70;;;4.90;;
24644;SDS011;12780;45.502;9.146;2023-07-31T12:30:26;7.40;;;4.70;;
24644;SDS011;12780;45.502;9.146;2023-07-31T12:32:52;6.53;;;4.70;;
24644;SDS011;12780;45.502;9.146;2023-07-31T12:35:18;8.70;;;4.32;;
24644;SDS011;12780;45.502;9.146;2023-07-31T12:37:44;10.07;;;4.57;;
24644;SDS011;12780;45.502;9.146;2023-07-31T12:40:10;10.45;;;5.55;;
24644;SDS011;12780;45.502;9.146;2023-07-31T12:42:37;11.13;;;5.05;;
24644;SDS011;12780;45.502;9.146;2023-07-31T12:45:03;7.60;;;4.97;;
24644;SDS011;12780;45.502;9.146;2023-07-31T12:47:29;6.43;;;4.45;;
24644;SDS011;12780;45.502;9.146;2023-07-31T12:49:55;6.57;;;4.40;;
24644;SDS011;12780;45.502;9.146;2023-07-31T12:52:21;7.65;;;5.28;;
24644;SDS011;12780;45.502;9.146;2023-07-31T12:54:47;10.00;;;5.05;;
24644;SDS011;12780;45.502;9.146;2023-07-31T12:57:13;7.43;;;4.50;;
24644;SDS011;12780;45.502;9.146;2023-07-31T12:59:39;6.93;;;4.18;;
24644;SDS011;12780;45.502;9.146;2023-07-31T13:02:05;8.52;;;4.78;;
24644;SDS011;12780;45.502;9.146;2023-07-31T13:04:31;5.97;;;4.38;;
24644;SDS011;12780;45.502;9.146;2023-07-31T13:06:58;5.97;;;4.53;;
24644;SDS011;12780;45.502;9.146;2023-07-31T13:09:24;6.53;;;4.53;;
24644;SDS011;12780;45.502;9.146;2023-07-31T13:11:50;9.20;;;4.72;;
24644;SDS011;12780;45.502;9.146;2023-07-31T13:14:16;8.55;;;4.88;;
24644;SDS011;12780;45.502;9.146;2023-07-31T13:16:42;8.23;;;4.25;;
24644;SDS011;12780;45.502;9.146;2023-07-31T13:19:08;5.80;;;4.20;;
24644;SDS011;12780;45.502;9.146;2023-07-31T13:21:34;7.32;;;4.35;;
24644;SDS011;12780;45.502;9.146;2023-07-31T13:24:01;10.15;;;5.75;;
24644;SDS011;12780;45.502;9.146;2023-07-31T13:26:28;8.70;;;4.88;;
24644;SDS011;12780;45.502;9.146;2023-07-31T13:28:54;8.48;;;4.68;;
24644;SDS011;12780;45.502;9.146;2023-07-31T13:31:20;7.18;;;4.40;;
24644;SDS011;12780;45.502;9.146;2023-07-31T13:33:46;7.80;;;5.95;;
24644;SDS011;12780;45.502;9.146;2023-07-31T13:36:12;7.03;;;5.13;;
24644;SDS011;12780;45.502;9.146;2023-07-31T13:38:39;11.30;;;5.45;;
24644;SDS011;12780;45.502;9.146;2023-07-31T13:41:05;5.80;;;4.00;;
24644;SDS011;12780;45.502;9.146;2023-07-31T13:43:31;6.70;;;4.45;;
24644;SDS011;12780;45.502;9.146;2023-07-31T13:45:57;6.80;;;4.53;;
24644;SDS011;12780;45.502;9.146;2023-07-31T13:48:29;5.07;;;4.00;;
24644;SDS011;12780;45.502;9.146;2023-07-31T13:50:55;9.25;;;4.20;;
24644;SDS011;12780;45.502;9.146;2023-07-31T13:56:18;6.47;;;4.20;;
24644;SDS011;12780;45.502;9.146;2023-07-31T13:58:44;7.22;;;4.47;;
24644;SDS011;12780;45.502;9.146;2023-07-31T14:01:10;5.93;;;4.40;;
24644;SDS011;12780;45.502;9.146;2023-07-31T14:03:36;5.15;;;4.32;;
24644;SDS011;12780;45.502;9.146;2023-07-31T14:06:03;7.20;;;4.40;;
24644;SDS011;12780;45.502;9.146;2023-07-31T14:08:29;5.93;;;4.32;;
24644;SDS011;12780;45.502;9.146;2023-07-31T14:10:56;7.25;;;4.28;;
24644;SDS011;12780;45.502;9.146;2023-07-31T14:13:22;5.88;;;3.83;;
24644;SDS011;12780;45.502;9.146;2023-07-31T14:15:48;10.52;;;4.18;;
24644;SDS011;12780;45.502;9.146;2023-07-31T14:18:14;8.10;;;4.68;;
24644;SDS011;12780;45.502;9.146;2023-07-31T14:20:40;9.10;;;4.30;;
24644;SDS011;12780;45.502;9.146;2023-07-31T14:23:06;8.05;;;4.43;;
24644;SDS011;12780;45.502;9.146;2023-07-31T14:25:32;6.78;;;4.47;;
24644;SDS011;12780;45.502;9.146;2023-07-31T14:27:58;15.23;;;4.47;;
24644;SDS011;12780;45.502;9.146;2023-07-31T14:30:24;8.27;;;4.50;;
24644;SDS011;12780;45.502;9.146;2023-07-31T14:32:50;8.05;;;4.55;;
24644;SDS011;12780;45.502;9.146;2023-07-31T14:35:16;6.78;;;4.28;;
24644;SDS011;12780;45.502;9.146;2023-07-31T14:37:43;9.45;;;4.53;;
24644;SDS011;12780;45.502;9.146;2023-07-31T14:40:10;9.55;;;4.30;;
24644;SDS011;12780;45.502;9.146;2023-07-31T14:42:37;8.05;;;4.65;;
24644;SDS011;12780;45.502;9.146;2023-07-31T14:45:03;6.50;;;4.28;;
24644;SDS011;12780;45.502;9.146;2023-07-31T14:47:29;5.60;;;4.50;;
24644;SDS011;12780;45.502;9.146;2023-07-31T14:49:58;5.57;;;4.50;;
24644;SDS011;12780;45.502;9.146;2023-07-31T14:52:27;5.53;;;4.30;;
24644;SDS011;12780;45.502;9.146;2023-07-31T14:54:54;6.85;;;3.80;;
24644;SDS011;12780;45.502;9.146;2023-07-31T14:57:20;6.55;;;4.05;;